Bovril, Argentina
Current Conditions -  °F | °C
As of 9:00 PM on Friday 31 Oct 2014 (Local Time) from SAAR Reporting Station
Clear Clear  
Wind Chill: 64°   Ceiling: Unl
Heat Index: 64°   Visibility: 6mi
Dew Point: 61°   Wind: 2mph
Humidity: 88%   Direction: 180°S
Pressure: 29.97"   Gusts: NA
Location:  31.35°S, 59.43°W
Report Text: SAAR 010000Z 18002KT CAVOK 18/16 Q1015
Loading
Personal Weather Stations






























Interactive Weather Map New forecast layout! Learn more

10-Day Weather Forecast

Advertisements
Track Severe Weather on mobile